Terminal Aerodrome Forecast
Issued by NWS

Home | Current Version | Previous Version | Text Only | Print | Product List | Glossary On
Versions: 1 2 3 4 5 6 7 8 9 10 11 12 13 14 15 16 17 18 19 20 21
000
FTUS46 KSEW 231100
TAFBFI
TAF
KBFI 231132Z 2312/2412 16006KT P6SM -SHRA SCT040 BKN060 BKN100
     FM231700 18008KT P6SM -SHRA SCT025 BKN040 BKN060
     FM240200 18008KT P6SM SCT040 BKN060=

USA.gov is the U.S. government's official web portal to all federal, state and local government web resources and services.